sensor_id;sensor_type;location;lat;lon;timestamp;pressure;altitude;pressure_sealevel;temperature;humidity
41636;BME280;27623;51.966;4.602;2024-03-02T00:02:23;64479.97;;;7.42;100.00
41636;BME280;27623;51.966;4.602;2024-03-02T00:04:49;64563.56;;;7.54;100.00
41636;BME280;27623;51.966;4.602;2024-03-02T00:07:14;64426.59;;;7.47;100.00
41636;BME280;27623;51.966;4.602;2024-03-02T00:09:40;64513.06;;;7.38;100.00
41636;BME280;27623;51.966;4.602;2024-03-02T00:12:05;64452.66;;;7.24;100.00
41636;BME280;27623;51.966;4.602;2024-03-02T00:14:31;64503.69;;;7.22;100.00
41636;BME280;27623;51.966;4.602;2024-03-02T00:16:57;64592.31;;;7.15;100.00
41636;BME280;27623;51.966;4.602;2024-03-02T00:19:22;64670.78;;;7.08;100.00
41636;BME280;27623;51.966;4.602;2024-03-02T00:21:48;64706.25;;;7.08;100.00
41636;BME280;27623;51.966;4.602;2024-03-02T00:24:30;64707.78;;;7.14;100.00
41636;BME280;27623;51.966;4.602;2024-03-02T00:26:57;64659.75;;;7.09;100.00
41636;BME280;27623;51.966;4.602;2024-03-02T00:29:22;64824.59;;;7.05;100.00
41636;BME280;27623;51.966;4.602;2024-03-02T00:31:48;64941.78;;;7.01;100.00
41636;BME280;27623;51.966;4.602;2024-03-02T00:34:14;64841.22;;;7.04;100.00
41636;BME280;27623;51.966;4.602;2024-03-02T00:36:41;64781.50;;;7.05;100.00
41636;BME280;27623;51.966;4.602;2024-03-02T00:39:07;64730.94;;;7.00;100.00
41636;BME280;27623;51.966;4.602;2024-03-02T00:41:33;64692.19;;;6.97;100.00
41636;BME280;27623;51.966;4.602;2024-03-02T00:44:03;64734.94;;;6.87;100.00
41636;BME280;27623;51.966;4.602;2024-03-02T00:46:35;64834.16;;;6.93;100.00
41636;BME280;27623;51.966;4.602;2024-03-02T00:49:04;64739.09;;;7.01;100.00
41636;BME280;27623;51.966;4.602;2024-03-02T00:51:34;64598.47;;;6.97;100.00
41636;BME280;27623;51.966;4.602;2024-03-02T00:54:03;64599.44;;;7.03;100.00
41636;BME280;27623;51.966;4.602;2024-03-02T00:56:30;64456.84;;;7.07;100.00
41636;BME280;27623;51.966;4.602;2024-03-02T00:58:58;64540.47;;;7.07;100.00
41636;BME280;27623;51.966;4.602;2024-03-02T01:01:24;64620.91;;;6.99;100.00
41636;BME280;27623;51.966;4.602;2024-03-02T01:03:49;64597.16;;;7.12;100.00
41636;BME280;27623;51.966;4.602;2024-03-02T01:06:16;64531.97;;;7.08;100.00
41636;BME280;27623;51.966;4.602;2024-03-02T01:08:42;64493.38;;;7.01;100.00
41636;BME280;27623;51.966;4.602;2024-03-02T01:11:07;64447.91;;;6.96;100.00
41636;BME280;27623;51.966;4.602;2024-03-02T01:13:33;64458.16;;;7.10;100.00
41636;BME280;27623;51.966;4.602;2024-03-02T01:15:59;64532.66;;;7.23;100.00
41636;BME280;27623;51.966;4.602;2024-03-02T01:18:25;64439.66;;;7.26;100.00
41636;BME280;27623;51.966;4.602;2024-03-02T01:20:51;64468.56;;;7.20;100.00
41636;BME280;27623;51.966;4.602;2024-03-02T01:23:20;64446.25;;;7.13;100.00
41636;BME280;27623;51.966;4.602;2024-03-02T01:25:48;64395.63;;;7.20;100.00
41636;BME280;27623;51.966;4.602;2024-03-02T01:28:14;64492.34;;;7.26;100.00
41636;BME280;27623;51.966;4.602;2024-03-02T01:30:40;64463.34;;;7.24;100.00
41636;BME280;27623;51.966;4.602;2024-03-02T01:33:08;64502.47;;;7.26;100.00
41636;BME280;27623;51.966;4.602;2024-03-02T01:35:34;64549.44;;;7.36;100.00
41636;BME280;27623;51.966;4.602;2024-03-02T01:38:00;64413.22;;;7.25;100.00
41636;BME280;27623;51.966;4.602;2024-03-02T01:40:26;64466.09;;;7.27;100.00
41636;BME280;27623;51.966;4.602;2024-03-02T01:42:53;64404.06;;;7.38;100.00
41636;BME280;27623;51.966;4.602;2024-03-02T01:45:23;64468.28;;;7.10;100.00
41636;BME280;27623;51.966;4.602;2024-03-02T01:47:49;64449.19;;;7.00;100.00
41636;BME280;27623;51.966;4.602;2024-03-02T01:50:14;64525.88;;;7.14;100.00
41636;BME280;27623;51.966;4.602;2024-03-02T01:52:42;64568.16;;;7.23;100.00
41636;BME280;27623;51.966;4.602;2024-03-02T01:55:09;64501.84;;;7.18;100.00
41636;BME280;27623;51.966;4.602;2024-03-02T01:57:34;64512.94;;;7.23;100.00
41636;BME280;27623;51.966;4.602;2024-03-02T02:00:00;64461.41;;;7.32;100.00
41636;BME280;27623;51.966;4.602;2024-03-02T02:02:26;64508.69;;;6.96;100.00
41636;BME280;27623;51.966;4.602;2024-03-02T02:04:52;64535.25;;;7.11;100.00
41636;BME280;27623;51.966;4.602;2024-03-02T02:07:17;64550.06;;;7.06;100.00
41636;BME280;27623;51.966;4.602;2024-03-02T02:09:43;64530.75;;;7.12;100.00
41636;BME280;27623;51.966;4.602;2024-03-02T02:12:09;64526.97;;;7.15;100.00
41636;BME280;27623;51.966;4.602;2024-03-02T02:14:35;64511.91;;;7.30;100.00
41636;BME280;27623;51.966;4.602;2024-03-02T02:17:00;64460.06;;;7.21;100.00
41636;BME280;27623;51.966;4.602;2024-03-02T02:19:26;64475.13;;;7.26;100.00
41636;BME280;27623;51.966;4.602;2024-03-02T02:21:51;64452.47;;;7.21;100.00
41636;BME280;27623;51.966;4.602;2024-03-02T02:24:17;64488.84;;;7.20;100.00
41636;BME280;27623;51.966;4.602;2024-03-02T02:26:42;64489.94;;;7.21;100.00
41636;BME280;27623;51.966;4.602;2024-03-02T02:29:07;64469.94;;;7.12;100.00
41636;BME280;27623;51.966;4.602;2024-03-02T02:31:39;64445.28;;;7.08;100.00
41636;BME280;27623;51.966;4.602;2024-03-02T02:34:05;64561.50;;;7.29;100.00
41636;BME280;27623;51.966;4.602;2024-03-02T02:36:34;64402.69;;;7.20;100.00
41636;BME280;27623;51.966;4.602;2024-03-02T02:39:03;64441.72;;;7.14;100.00
41636;BME280;27623;51.966;4.602;2024-03-02T02:41:30;64450.56;;;7.10;100.00
41636;BME280;27623;51.966;4.602;2024-03-02T02:43:56;64425.56;;;7.08;100.00
41636;BME280;27623;51.966;4.602;2024-03-02T02:46:21;64445.56;;;7.17;100.00
41636;BME280;27623;51.966;4.602;2024-03-02T02:48:46;64387.97;;;7.39;100.00
41636;BME280;27623;51.966;4.602;2024-03-02T02:51:12;64332.75;;;7.14;100.00
41636;BME280;27623;51.966;4.602;2024-03-02T02:53:37;64371.38;;;7.21;100.00
41636;BME280;27623;51.966;4.602;2024-03-02T02:56:09;64434.19;;;7.21;100.00
41636;BME280;27623;51.966;4.602;2024-03-02T02:58:34;64363.38;;;7.16;100.00
41636;BME280;27623;51.966;4.602;2024-03-02T03:01:00;64336.38;;;7.15;100.00
41636;BME280;27623;51.966;4.602;2024-03-02T03:03:26;64399.88;;;7.10;100.00
41636;BME280;27623;51.966;4.602;2024-03-02T03:05:51;64390.50;;;7.13;100.00
41636;BME280;27623;51.966;4.602;2024-03-02T03:08:16;64359.66;;;7.27;100.00
41636;BME280;27623;51.966;4.602;2024-03-02T03:10:42;64367.06;;;7.24;100.00
41636;BME280;27623;51.966;4.602;2024-03-02T03:13:08;64380.81;;;7.26;100.00
41636;BME280;27623;51.966;4.602;2024-03-02T03:15:37;64316.72;;;7.22;100.00
41636;BME280;27623;51.966;4.602;2024-03-02T03:18:05;64364.91;;;7.30;100.00
41636;BME280;27623;51.966;4.602;2024-03-02T03:20:31;64344.28;;;7.32;100.00
41636;BME280;27623;51.966;4.602;2024-03-02T03:22:57;64344.13;;;7.36;100.00
41636;BME280;27623;51.966;4.602;2024-03-02T03:25:23;64287.06;;;7.26;100.00
41636;BME280;27623;51.966;4.602;2024-03-02T03:27:48;64316.38;;;7.24;100.00
41636;BME280;27623;51.966;4.602;2024-03-02T03:30:14;64330.56;;;7.38;100.00
41636;BME280;27623;51.966;4.602;2024-03-02T03:32:39;64260.00;;;7.50;100.00
41636;BME280;27623;51.966;4.602;2024-03-02T03:35:05;64214.31;;;7.36;100.00
41636;BME280;27623;51.966;4.602;2024-03-02T03:37:33;64264.47;;;7.35;100.00
41636;BME280;27623;51.966;4.602;2024-03-02T03:39:59;64237.28;;;7.31;100.00
41636;BME280;27623;51.966;4.602;2024-03-02T03:42:25;64266.41;;;7.28;100.00
41636;BME280;27623;51.966;4.602;2024-03-02T03:44:50;64291.66;;;7.39;100.00
41636;BME280;27623;51.966;4.602;2024-03-02T03:47:15;64232.22;;;7.31;100.00
41636;BME280;27623;51.966;4.602;2024-03-02T03:49:41;64200.56;;;7.35;100.00
41636;BME280;27623;51.966;4.602;2024-03-02T03:52:06;64226.34;;;7.14;100.00
41636;BME280;27623;51.966;4.602;2024-03-02T03:54:31;64253.31;;;7.15;100.00
41636;BME280;27623;51.966;4.602;2024-03-02T03:56:57;64193.25;;;7.18;100.00
41636;BME280;27623;51.966;4.602;2024-03-02T03:59:22;64233.66;;;7.30;100.00
41636;BME280;27623;51.966;4.602;2024-03-02T04:01:48;64206.88;;;7.31;100.00
41636;BME280;27623;51.966;4.602;2024-03-02T04:04:13;64199.28;;;7.31;100.00
41636;BME280;27623;51.966;4.602;2024-03-02T04:06:38;64183.28;;;7.14;100.00
41636;BME280;27623;51.966;4.602;2024-03-02T04:09:04;64237.81;;;7.24;100.00
41636;BME280;27623;51.966;4.602;2024-03-02T04:11:29;64178.22;;;7.14;100.00
41636;BME280;27623;51.966;4.602;2024-03-02T04:13:55;64207.72;;;7.15;100.00
41636;BME280;27623;51.966;4.602;2024-03-02T04:16:21;64221.13;;;7.18;100.00
41636;BME280;27623;51.966;4.602;2024-03-02T04:18:46;64167.75;;;7.30;100.00
41636;BME280;27623;51.966;4.602;2024-03-02T04:21:11;64170.47;;;7.26;100.00
41636;BME280;27623;51.966;4.602;2024-03-02T04:23:37;64144.19;;;7.13;100.00
41636;BME280;27623;51.966;4.602;2024-03-02T04:26:02;64132.75;;;7.09;100.00
41636;BME280;27623;51.966;4.602;2024-03-02T04:28:28;64193.22;;;7.11;100.00
41636;BME280;27623;51.966;4.602;2024-03-02T04:30:53;64108.88;;;7.01;100.00
41636;BME280;27623;51.966;4.602;2024-03-02T04:33:19;64152.31;;;7.06;100.00
41636;BME280;27623;51.966;4.602;2024-03-02T04:35:46;64171.69;;;7.15;100.00
41636;BME280;27623;51.966;4.602;2024-03-02T04:38:12;64177.88;;;7.23;100.00
41636;BME280;27623;51.966;4.602;2024-03-02T04:40:37;64088.97;;;7.13;100.00
41636;BME280;27623;51.966;4.602;2024-03-02T04:43:02;64169.00;;;7.19;100.00
41636;BME280;27623;51.966;4.602;2024-03-02T04:45:28;64105.47;;;7.17;100.00
41636;BME280;27623;51.966;4.602;2024-03-02T04:47:54;64139.47;;;7.11;100.00
41636;BME280;27623;51.966;4.602;2024-03-02T04:50:19;64098.63;;;7.27;100.00
41636;BME280;27623;51.966;4.602;2024-03-02T04:52:45;64159.06;;;7.29;100.00
41636;BME280;27623;51.966;4.602;2024-03-02T04:55:10;64150.56;;;7.23;100.00
41636;BME280;27623;51.966;4.602;2024-03-02T04:57:50;64082.88;;;7.27;100.00
41636;BME280;27623;51.966;4.602;2024-03-02T05:00:16;64097.69;;;7.14;100.00
41636;BME280;27623;51.966;4.602;2024-03-02T05:02:42;64111.78;;;7.13;100.00
41636;BME280;27623;51.966;4.602;2024-03-02T05:05:07;64134.63;;;7.20;100.00
41636;BME280;27623;51.966;4.602;2024-03-02T05:07:33;64140.00;;;7.11;100.00
41636;BME280;27623;51.966;4.602;2024-03-02T05:10:01;64116.84;;;7.13;100.00
41636;BME280;27623;51.966;4.602;2024-03-02T05:12:28;64061.81;;;7.09;100.00
41636;BME280;27623;51.966;4.602;2024-03-02T05:15:12;64110.16;;;7.05;100.00
41636;BME280;27623;51.966;4.602;2024-03-02T05:17:42;64146.13;;;6.98;100.00
41636;BME280;27623;51.966;4.602;2024-03-02T05:20:10;64149.56;;;6.97;100.00
41636;BME280;27623;51.966;4.602;2024-03-02T05:22:36;64146.00;;;7.17;100.00
41636;BME280;27623;51.966;4.602;2024-03-02T05:25:06;64076.84;;;7.07;100.00
41636;BME280;27623;51.966;4.602;2024-03-02T05:27:32;64094.53;;;6.93;100.00
41636;BME280;27623;51.966;4.602;2024-03-02T05:29:58;64148.63;;;6.91;100.00
41636;BME280;27623;51.966;4.602;2024-03-02T05:32:23;64150.47;;;7.02;100.00
41636;BME280;27623;51.966;4.602;2024-03-02T05:34:49;64158.09;;;7.09;100.00
41636;BME280;27623;51.966;4.602;2024-03-02T05:37:16;64153.94;;;7.08;100.00
41636;BME280;27623;51.966;4.602;2024-03-02T05:39:41;64163.31;;;6.98;100.00
41636;BME280;27623;51.966;4.602;2024-03-02T05:42:08;64120.63;;;7.03;100.00
41636;BME280;27623;51.966;4.602;2024-03-02T05:44:34;64125.13;;;6.95;100.00
41636;BME280;27623;51.966;4.602;2024-03-02T05:47:00;64171.50;;;7.05;100.00
41636;BME280;27623;51.966;4.602;2024-03-02T05:49:25;64112.66;;;6.98;100.00
41636;BME280;27623;51.966;4.602;2024-03-02T05:51:53;64136.22;;;7.15;100.00
41636;BME280;27623;51.966;4.602;2024-03-02T05:54:18;64088.94;;;6.99;100.00
41636;BME280;27623;51.966;4.602;2024-03-02T05:56:43;64159.19;;;7.03;100.00
41636;BME280;27623;51.966;4.602;2024-03-02T05:59:12;64145.28;;;7.14;100.00
41636;BME280;27623;51.966;4.602;2024-03-02T06:01:45;64077.91;;;7.01;100.00
41636;BME280;27623;51.966;4.602;2024-03-02T06:04:16;64155.75;;;7.05;100.00
41636;BME280;27623;51.966;4.602;2024-03-02T06:06:42;64144.72;;;7.06;100.00
41636;BME280;27623;51.966;4.602;2024-03-02T06:09:08;64097.66;;;7.07;100.00
41636;BME280;27623;51.966;4.602;2024-03-02T06:11:37;64077.91;;;7.01;100.00
41636;BME280;27623;51.966;4.602;2024-03-02T06:14:07;64102.75;;;7.14;100.00
41636;BME280;27623;51.966;4.602;2024-03-02T06:16:32;64076.13;;;7.04;100.00
41636;BME280;27623;51.966;4.602;2024-03-02T06:18:58;64132.91;;;6.98;100.00
41636;BME280;27623;51.966;4.602;2024-03-02T06:21:24;64075.22;;;7.05;100.00
41636;BME280;27623;51.966;4.602;2024-03-02T06:23:50;64088.41;;;6.99;100.00
41636;BME280;27623;51.966;4.602;2024-03-02T06:26:16;64067.59;;;6.98;100.00
41636;BME280;27623;51.966;4.602;2024-03-02T06:28:41;64093.13;;;7.01;100.00
41636;BME280;27623;51.966;4.602;2024-03-02T06:31:07;64078.44;;;6.94;100.00
41636;BME280;27623;51.966;4.602;2024-03-02T06:33:32;64031.25;;;7.00;100.00
41636;BME280;27623;51.966;4.602;2024-03-02T06:35:57;64113.75;;;7.06;100.00
41636;BME280;27623;51.966;4.602;2024-03-02T06:38:23;64121.91;;;7.06;100.00
41636;BME280;27623;51.966;4.602;2024-03-02T06:40:48;64077.38;;;7.07;100.00
41636;BME280;27623;51.966;4.602;2024-03-02T06:43:13;64093.31;;;7.03;100.00
41636;BME280;27623;51.966;4.602;2024-03-02T06:45:39;64048.78;;;6.97;100.00
41636;BME280;27623;51.966;4.602;2024-03-02T06:48:04;64072.16;;;7.05;100.00
41636;BME280;27623;51.966;4.602;2024-03-02T06:50:30;64086.25;;;7.04;100.00
41636;BME280;27623;51.966;4.602;2024-03-02T06:52:55;64086.78;;;6.97;100.00
41636;BME280;27623;51.966;4.602;2024-03-02T06:55:21;64062.72;;;7.01;100.00
41636;BME280;27623;51.966;4.602;2024-03-02T06:57:47;64071.03;;;6.97;100.00
41636;BME280;27623;51.966;4.602;2024-03-02T07:00:13;64112.88;;;7.14;100.00
41636;BME280;27623;51.966;4.602;2024-03-02T07:02:39;64022.56;;;7.06;100.00
41636;BME280;27623;51.966;4.602;2024-03-02T07:05:07;64081.31;;;6.85;100.00
41636;BME280;27623;51.966;4.602;2024-03-02T07:07:34;64062.50;;;6.84;100.00
41636;BME280;27623;51.966;4.602;2024-03-02T07:10:01;64064.13;;;6.93;100.00
41636;BME280;27623;51.966;4.602;2024-03-02T07:12:26;64041.84;;;6.79;100.00
41636;BME280;27623;51.966;4.602;2024-03-02T07:14:52;64037.00;;;6.96;100.00
41636;BME280;27623;51.966;4.602;2024-03-02T07:17:30;64043.72;;;6.97;100.00
41636;BME280;27623;51.966;4.602;2024-03-02T07:19:56;64052.72;;;6.89;100.00
41636;BME280;27623;51.966;4.602;2024-03-02T07:22:22;64023.63;;;7.00;100.00
41636;BME280;27623;51.966;4.602;2024-03-02T07:24:48;64059.28;;;7.02;100.00
41636;BME280;27623;51.966;4.602;2024-03-02T07:27:17;64050.38;;;6.92;100.00
41636;BME280;27623;51.966;4.602;2024-03-02T07:29:43;64047.47;;;6.86;100.00
41636;BME280;27623;51.966;4.602;2024-03-02T07:32:09;64011.72;;;7.03;100.00
41636;BME280;27623;51.966;4.602;2024-03-02T07:34:35;64070.25;;;6.86;100.00
41636;BME280;27623;51.966;4.602;2024-03-02T07:37:00;64036.84;;;7.00;100.00
41636;BME280;27623;51.966;4.602;2024-03-02T07:39:27;64031.22;;;6.93;100.00
41636;BME280;27623;51.966;4.602;2024-03-02T07:41:52;64001.38;;;6.93;100.00
41636;BME280;27623;51.966;4.602;2024-03-02T07:44:18;64088.56;;;6.94;100.00
41636;BME280;27623;51.966;4.602;2024-03-02T07:46:47;64023.63;;;6.93;100.00
41636;BME280;27623;51.966;4.602;2024-03-02T07:49:15;64077.19;;;6.98;100.00
41636;BME280;27623;51.966;4.602;2024-03-02T07:51:41;64046.44;;;7.00;100.00
41636;BME280;27623;51.966;4.602;2024-03-02T07:54:06;64020.75;;;7.02;100.00
41636;BME280;27623;51.966;4.602;2024-03-02T07:56:31;64082.28;;;7.05;100.00
41636;BME280;27623;51.966;4.602;2024-03-02T07:59:00;64075.06;;;7.17;100.00
41636;BME280;27623;51.966;4.602;2024-03-02T08:01:30;64063.06;;;6.99;100.00
41636;BME280;27623;51.966;4.602;2024-03-02T08:03:57;64030.91;;;7.16;100.00
41636;BME280;27623;51.966;4.602;2024-03-02T08:06:24;64038.31;;;7.06;100.00
41636;BME280;27623;51.966;4.602;2024-03-02T08:08:56;64121.56;;;7.15;100.00
41636;BME280;27623;51.966;4.602;2024-03-02T08:11:22;64070.19;;;7.19;100.00
41636;BME280;27623;51.966;4.602;2024-03-02T08:13:47;64096.81;;;7.23;100.00
41636;BME280;27623;51.966;4.602;2024-03-02T08:16:14;64097.19;;;7.35;100.00
41636;BME280;27623;51.966;4.602;2024-03-02T08:18:42;64134.69;;;7.42;100.00
41636;BME280;27623;51.966;4.602;2024-03-02T08:21:08;64102.41;;;7.31;100.00
41636;BME280;27623;51.966;4.602;2024-03-02T08:23:34;64102.44;;;7.38;100.00
41636;BME280;27623;51.966;4.602;2024-03-02T08:26:00;64077.13;;;7.52;100.00
41636;BME280;27623;51.966;4.602;2024-03-02T08:28:28;64124.94;;;7.54;100.00
41636;BME280;27623;51.966;4.602;2024-03-02T08:30:53;64031.13;;;7.61;100.00
41636;BME280;27623;51.966;4.602;2024-03-02T08:33:19;64120.03;;;7.49;100.00
41636;BME280;27623;51.966;4.602;2024-03-02T08:35:44;64067.72;;;7.48;100.00
41636;BME280;27623;51.966;4.602;2024-03-02T08:38:09;64062.66;;;7.62;100.00
41636;BME280;27623;51.966;4.602;2024-03-02T08:40:35;64080.22;;;7.59;100.00
41636;BME280;27623;51.966;4.602;2024-03-02T08:43:00;64105.94;;;7.65;100.00
41636;BME280;27623;51.966;4.602;2024-03-02T08:45:26;64119.72;;;7.73;100.00
41636;BME280;27623;51.966;4.602;2024-03-02T08:47:51;64135.66;;;7.76;100.00
41636;BME280;27623;51.966;4.602;2024-03-02T08:50:17;64105.97;;;7.79;100.00
41636;BME280;27623;51.966;4.602;2024-03-02T08:52:43;64120.09;;;7.92;100.00
41636;BME280;27623;51.966;4.602;2024-03-02T08:55:08;64140.78;;;8.04;100.00
41636;BME280;27623;51.966;4.602;2024-03-02T08:57:33;64054.88;;;7.88;100.00
41636;BME280;27623;51.966;4.602;2024-03-02T08:59:59;64117.78;;;8.09;100.00
41636;BME280;27623;51.966;4.602;2024-03-02T09:02:25;64161.63;;;8.19;100.00
41636;BME280;27623;51.966;4.602;2024-03-02T09:04:51;64150.06;;;8.27;100.00
41636;BME280;27623;51.966;4.602;2024-03-02T09:07:16;64123.75;;;8.28;100.00
41636;BME280;27623;51.966;4.602;2024-03-02T09:09:42;64155.31;;;8.30;100.00
41636;BME280;27623;51.966;4.602;2024-03-02T09:12:08;64146.97;;;8.26;100.00
41636;BME280;27623;51.966;4.602;2024-03-02T09:14:35;64173.28;;;8.39;100.00
41636;BME280;27623;51.966;4.602;2024-03-02T09:17:00;64177.47;;;8.55;100.00
41636;BME280;27623;51.966;4.602;2024-03-02T09:19:25;64180.75;;;8.65;100.00
41636;BME280;27623;51.966;4.602;2024-03-02T09:21:51;64161.31;;;8.56;100.00
41636;BME280;27623;51.966;4.602;2024-03-02T09:24:16;64210.31;;;8.81;100.00
41636;BME280;27623;51.966;4.602;2024-03-02T09:26:42;64179.47;;;8.76;100.00
41636;BME280;27623;51.966;4.602;2024-03-02T09:29:07;64198.53;;;8.86;100.00
41636;BME280;27623;51.966;4.602;2024-03-02T09:31:32;64204.34;;;8.89;100.00
41636;BME280;27623;51.966;4.602;2024-03-02T09:33:58;64212.31;;;9.02;100.00
41636;BME280;27623;51.966;4.602;2024-03-02T09:36:23;64243.72;;;8.93;100.00
41636;BME280;27623;51.966;4.602;2024-03-02T09:38:49;64213.06;;;9.05;100.00
41636;BME280;27623;51.966;4.602;2024-03-02T09:41:14;64211.44;;;9.10;100.00
41636;BME280;27623;51.966;4.602;2024-03-02T09:43:40;64222.31;;;9.13;100.00
41636;BME280;27623;51.966;4.602;2024-03-02T09:46:08;64259.91;;;9.41;100.00
41636;BME280;27623;51.966;4.602;2024-03-02T09:48:34;64270.97;;;9.61;100.00
41636;BME280;27623;51.966;4.602;2024-03-02T09:51:00;64265.34;;;9.60;100.00
41636;BME280;27623;51.966;4.602;2024-03-02T09:53:30;64283.88;;;9.63;99.67
41636;BME280;27623;51.966;4.602;2024-03-02T09:55:56;64265.88;;;9.47;97.14
41636;BME280;27623;51.966;4.602;2024-03-02T09:58:21;64291.69;;;9.73;97.55
41636;BME280;27623;51.966;4.602;2024-03-02T10:00:47;64327.13;;;9.92;99.42
41636;BME280;27623;51.966;4.602;2024-03-02T10:03:13;64341.13;;;9.95;95.74
41636;BME280;27623;51.966;4.602;2024-03-02T10:05:38;64347.84;;;10.04;95.52
41636;BME280;27623;51.966;4.602;2024-03-02T10:08:04;64320.75;;;10.24;95.80
41636;BME280;27623;51.966;4.602;2024-03-02T10:10:37;64339.13;;;10.31;95.72
41636;BME280;27623;51.966;4.602;2024-03-02T10:13:10;64353.66;;;10.50;93.61
41636;BME280;27623;51.966;4.602;2024-03-02T10:15:37;64317.28;;;10.32;90.04
41636;BME280;27623;51.966;4.602;2024-03-02T10:18:08;64356.56;;;10.48;91.09
41636;BME280;27623;51.966;4.602;2024-03-02T10:20:34;64382.91;;;10.60;88.70
41636;BME280;27623;51.966;4.602;2024-03-02T10:23:13;64430.41;;;10.83;87.20
41636;BME280;27623;51.966;4.602;2024-03-02T10:25:39;64398.38;;;10.70;85.83
41636;BME280;27623;51.966;4.602;2024-03-02T10:28:05;64402.94;;;10.70;86.34
41636;BME280;27623;51.966;4.602;2024-03-02T10:30:33;64406.22;;;10.73;83.35
41636;BME280;27623;51.966;4.602;2024-03-02T10:33:01;64435.88;;;10.95;85.54
41636;BME280;27623;51.966;4.602;2024-03-02T10:35:27;64456.25;;;11.10;82.89
41636;BME280;27623;51.966;4.602;2024-03-02T10:37:52;64439.81;;;11.23;82.21
41636;BME280;27623;51.966;4.602;2024-03-02T10:40:21;64450.22;;;11.25;83.85
41636;BME280;27623;51.966;4.602;2024-03-02T10:42:47;64441.81;;;11.22;79.46
41636;BME280;27623;51.966;4.602;2024-03-02T10:45:15;64462.41;;;11.32;80.97
41636;BME280;27623;51.966;4.602;2024-03-02T10:47:44;64505.00;;;11.64;79.15
41636;BME280;27623;51.966;4.602;2024-03-02T10:50:12;64507.16;;;11.88;77.86
41636;BME280;27623;51.966;4.602;2024-03-02T10:52:38;64567.69;;;12.06;80.41
41636;BME280;27623;51.966;4.602;2024-03-02T10:55:08;64545.94;;;12.17;77.57
41636;BME280;27623;51.966;4.602;2024-03-02T10:57:54;64536.13;;;12.00;73.16
41636;BME280;27623;51.966;4.602;2024-03-02T11:00:26;64577.16;;;12.17;74.45
41636;BME280;27623;51.966;4.602;2024-03-02T11:03:04;64559.84;;;11.96;72.42
41636;BME280;27623;51.966;4.602;2024-03-02T11:05:36;64486.03;;;11.70;72.87
41636;BME280;27623;51.966;4.602;2024-03-02T11:08:08;64486.59;;;11.78;73.73
41636;BME280;27623;51.966;4.602;2024-03-02T11:10:50;64515.19;;;11.64;72.79
41636;BME280;27623;51.966;4.602;2024-03-02T11:13:22;64516.44;;;11.96;74.65
41636;BME280;27623;51.966;4.602;2024-03-02T11:15:53;64556.91;;;12.20;73.19
41636;BME280;27623;51.966;4.602;2024-03-02T11:18:21;64581.25;;;12.54;70.51
41636;BME280;27623;51.966;4.602;2024-03-02T11:20:47;64554.69;;;12.25;67.81
41636;BME280;27623;51.966;4.602;2024-03-02T11:23:13;64613.00;;;12.62;69.94
41636;BME280;27623;51.966;4.602;2024-03-02T11:25:39;64631.03;;;12.79;68.65
41636;BME280;27623;51.966;4.602;2024-03-02T11:28:07;64621.72;;;12.78;67.50
41636;BME280;27623;51.966;4.602;2024-03-02T11:33:07;64660.75;;;13.09;66.59
41636;BME280;27623;51.966;4.602;2024-03-02T11:35:37;64689.06;;;13.12;66.83
41636;BME280;27623;51.966;4.602;2024-03-02T11:38:06;64677.94;;;13.06;64.52
41636;BME280;27623;51.966;4.602;2024-03-02T11:40:32;64670.63;;;13.04;65.95
41636;BME280;27623;51.966;4.602;2024-03-02T11:42:59;64638.50;;;12.91;64.34
41636;BME280;27623;51.966;4.602;2024-03-02T11:45:28;64659.66;;;13.08;64.87
41636;BME280;27623;51.966;4.602;2024-03-02T11:47:58;64660.72;;;13.23;66.07
41636;BME280;27623;51.966;4.602;2024-03-02T11:50:34;64666.53;;;13.33;63.67
41636;BME280;27623;51.966;4.602;2024-03-02T11:53:07;64695.78;;;13.34;62.19
41636;BME280;27623;51.966;4.602;2024-03-02T11:55:36;64679.66;;;13.46;62.31
41636;BME280;27623;51.966;4.602;2024-03-02T11:58:03;64658.34;;;13.26;61.94
41636;BME280;27623;51.966;4.602;2024-03-02T12:00:29;64740.63;;;13.83;62.24
41636;BME280;27623;51.966;4.602;2024-03-02T12:03:05;64703.50;;;13.72;61.39
41636;BME280;27623;51.966;4.602;2024-03-02T12:05:31;64727.44;;;13.85;62.11
41636;BME280;27623;51.966;4.602;2024-03-02T12:08:02;64720.84;;;13.86;63.62
41636;BME280;27623;51.966;4.602;2024-03-02T12:10:29;64753.38;;;13.97;61.17
41636;BME280;27623;51.966;4.602;2024-03-02T12:12:58;64762.66;;;14.13;61.42
41636;BME280;27623;51.966;4.602;2024-03-02T12:15:27;64791.31;;;14.35;61.77
41636;BME280;27623;51.966;4.602;2024-03-02T12:17:55;64806.66;;;14.49;59.19
41636;BME280;27623;51.966;4.602;2024-03-02T12:20:20;64803.25;;;14.29;59.74
41636;BME280;27623;51.966;4.602;2024-03-02T12:22:46;64718.19;;;13.55;59.37
41636;BME280;27623;51.966;4.602;2024-03-02T12:25:12;64701.25;;;13.47;61.77
41636;BME280;27623;51.966;4.602;2024-03-02T12:27:39;64695.47;;;13.22;61.60
41636;BME280;27623;51.966;4.602;2024-03-02T12:30:06;64637.34;;;13.11;62.32
41636;BME280;27623;51.966;4.602;2024-03-02T12:32:33;64635.19;;;13.02;60.97
41636;BME280;27623;51.966;4.602;2024-03-02T12:34:59;64661.28;;;13.24;61.62
41636;BME280;27623;51.966;4.602;2024-03-02T12:37:25;64679.06;;;13.52;60.00
41636;BME280;27623;51.966;4.602;2024-03-02T12:39:52;64732.63;;;13.71;60.90
41636;BME280;27623;51.966;4.602;2024-03-02T12:42:18;64699.72;;;13.55;58.69
41636;BME280;27623;51.966;4.602;2024-03-02T12:44:46;64735.13;;;13.85;58.86
41636;BME280;27623;51.966;4.602;2024-03-02T12:47:12;64691.88;;;13.52;58.89
41636;BME280;27623;51.966;4.602;2024-03-02T12:49:40;64687.03;;;13.26;59.94
41636;BME280;27623;51.966;4.602;2024-03-02T12:52:06;64645.38;;;13.23;60.76
41636;BME280;27623;51.966;4.602;2024-03-02T12:54:32;64764.81;;;13.70;61.31
41636;BME280;27623;51.966;4.602;2024-03-02T12:56:58;64740.25;;;13.78;60.27
41636;BME280;27623;51.966;4.602;2024-03-02T12:59:24;64761.28;;;13.86;59.88
41636;BME280;27623;51.966;4.602;2024-03-02T13:01:55;64783.53;;;14.11;61.10